Time;durP1;ratioP1;P1;durP2;ratioP2;P2;SDS_P1;SDS_P2;PMS_P1;PMS_P2;Temp;Humidity;BMP_temperature;BMP_pressure;BME280_temperature;BME280_humidity;BME280_pressure;Samples;Min_cycle;Max_cycle;Signal;HPM_P1;HPM_P2
2023/04/07 00:01:43;;;;;;;5.60;3.20;;;;;;;8.48;100.00;98402.03;5138851;28;20051;-59
2023/04/07 00:04:10;;;;;;;5.63;3.40;;;;;;;8.29;100.00;98377.53;5138807;28;20051;-61
2023/04/07 00:06:36;;;;;;;7.43;3.45;;;;;;;8.46;100.00;98401.63;5139130;28;20051;-60
2023/04/07 00:09:02;;;;;;;8.30;3.65;;;;;;;8.43;100.00;98366.84;5138811;28;20051;-57
2023/04/07 00:11:28;;;;;;;8.85;3.55;;;;;;;8.33;100.00;98372.13;5139154;27;20134;-59
2023/04/07 00:13:54;;;;;;;7.32;3.10;;;;;;;8.46;100.00;98392.63;5138708;27;20416;-58
2023/04/07 00:16:20;;;;;;;5.35;3.47;;;;;;;8.49;100.00;98386.44;5139065;28;20055;-55
2023/04/07 00:18:46;;;;;;;12.40;4.30;;;;;;;8.50;100.00;98379.81;5138804;28;20062;-61
2023/04/07 00:21:13;;;;;;;9.38;3.10;;;;;;;8.39;100.00;98371.47;5138756;28;20135;-61
2023/04/07 00:23:39;;;;;;;5.40;3.20;;;;;;;8.40;100.00;98378.53;5138540;28;20429;-59
2023/04/07 00:26:05;;;;;;;6.13;3.28;;;;;;;8.40;100.00;98372.28;5138613;27;20051;-61
2023/04/07 00:28:30;;;;;;;7.65;3.65;;;;;;;8.46;100.00;98360.66;5138949;28;20104;-60
2023/04/07 00:30:56;;;;;;;7.13;4.10;;;;;;;8.54;100.00;98368.94;5138473;28;20146;-60
2023/04/07 00:33:22;;;;;;;12.63;4.20;;;;;;;8.47;100.00;98362.22;5138468;28;20328;-60
2023/04/07 00:35:48;;;;;;;6.28;3.40;;;;;;;8.37;100.00;98360.09;5138579;27;20097;-59
2023/04/07 00:38:15;;;;;;;9.75;3.78;;;;;;;8.45;100.00;98374.66;5138592;28;20365;-55
2023/04/07 00:40:40;;;;;;;6.07;3.38;;;;;;;8.51;100.00;98359.53;5138685;28;20107;-58
2023/04/07 00:43:06;;;;;;;9.68;3.80;;;;;;;8.42;100.00;98365.25;5138279;27;20105;-58
2023/04/07 00:45:32;;;;;;;5.68;3.63;;;;;;;8.62;100.00;98365.13;5138547;28;20082;-56
2023/04/07 00:47:59;;;;;;;9.82;3.50;;;;;;;8.41;100.00;98376.56;5138433;28;20074;-57
2023/04/07 00:50:25;;;;;;;8.13;3.40;;;;;;;8.38;100.00;98371.84;5138621;28;20047;-60
2023/04/07 00:52:53;;;;;;;8.77;4.20;;;;;;;8.40;100.00;98388.66;5138145;27;20485;-59
2023/04/07 00:55:20;;;;;;;7.72;3.63;;;;;;;8.41;100.00;98415.59;5138501;27;20059;-60
2023/04/07 00:57:45;;;;;;;6.78;3.40;;;;;;;8.14;100.00;98431.16;5138102;28;20069;-58
2023/04/07 01:00:12;;;;;;;6.95;3.83;;;;;;;8.32;100.00;98447.81;5138481;27;20047;-57
2023/04/07 01:02:42;;;;;;;4.53;3.40;;;;;;;8.28;100.00;98419.66;5138857;28;20061;-57
2023/04/07 01:05:15;;;;;;;5.53;3.55;;;;;;;8.19;100.00;98417.19;5138540;28;20138;-58
2023/04/07 01:07:50;;;;;;;5.80;4.10;;;;;;;8.32;100.00;98466.91;5137910;27;20053;-55
2023/04/07 01:10:22;;;;;;;8.63;3.47;;;;;;;8.25;100.00;98442.25;5138063;27;20051;-56
2023/04/07 01:12:53;;;;;;;9.70;3.50;;;;;;;8.27;100.00;98437.22;5138223;28;20123;-61
2023/04/07 01:15:23;;;;;;;7.68;3.97;;;;;;;8.37;100.00;98441.25;5137801;28;20340;-60
2023/04/07 01:17:55;;;;;;;5.40;3.67;;;;;;;8.26;100.00;98443.81;5138273;27;20165;-56
2023/04/07 01:20:25;;;;;;;10.60;3.75;;;;;;;8.01;100.00;98474.25;5138008;28;20055;-60
2023/04/07 01:22:54;;;;;;;6.00;3.97;;;;;;;8.10;100.00;98511.44;5137900;28;20393;-61
2023/04/07 01:25:52;;;;;;;8.25;3.78;;;;;;;8.16;100.00;98516.22;5137850;27;20058;-60
2023/04/07 01:28:43;;;;;;;8.50;3.47;;;;;;;8.13;100.00;98507.94;5137723;28;20134;-60
2023/04/07 01:31:12;;;;;;;13.68;4.30;;;;;;;8.05;100.00;98525.38;5138040;27;20054;-56
2023/04/07 01:33:40;;;;;;;8.90;3.60;;;;;;;8.07;100.00;98539.47;5137639;28;20112;-57
2023/04/07 01:36:08;;;;;;;4.55;3.22;;;;;;;7.96;100.00;98561.09;5137926;27;20138;-53
2023/04/07 01:38:35;;;;;;;9.55;4.20;;;;;;;8.06;100.00;98563.22;5137755;28;20313;-54
2023/04/07 01:41:03;;;;;;;6.22;3.70;;;;;;;8.13;100.00;98571.56;5137716;28;20118;-61
2023/04/07 01:43:30;;;;;;;10.32;4.45;;;;;;;8.02;100.00;98549.50;5137419;28;20376;-57
2023/04/07 01:45:57;;;;;;;8.07;3.60;;;;;;;8.31;100.00;98538.31;5137584;28;20171;-58
2023/04/07 01:48:24;;;;;;;5.35;3.30;;;;;;;8.30;100.00;98509.41;5137584;28;20138;-60
2023/04/07 01:50:51;;;;;;;13.73;4.07;;;;;;;8.14;100.00;98499.41;5137466;28;20047;-57
2023/04/07 01:53:18;;;;;;;9.27;3.88;;;;;;;8.17;100.00;98514.28;5137550;28;20420;-54
2023/04/07 01:55:44;;;;;;;10.88;4.00;;;;;;;8.39;100.00;98529.88;5137236;28;20053;-58
2023/04/07 01:58:10;;;;;;;6.32;3.80;;;;;;;8.37;100.00;98504.84;5137590;28;20054;-61
2023/04/07 02:00:36;;;;;;;6.55;3.83;;;;;;;8.42;100.00;98451.88;5137237;28;20074;-61
2023/04/07 02:03:10;;;;;;;5.55;3.25;;;;;;;8.43;100.00;98462.47;5137619;28;20054;-56
2023/04/07 02:05:38;;;;;;;17.88;4.05;;;;;;;8.57;100.00;98461.88;5137245;28;20133;-57
2023/04/07 02:08:07;;;;;;;11.98;3.90;;;;;;;8.47;100.00;98452.38;5137374;28;20055;-56
2023/04/07 02:10:36;;;;;;;12.18;3.70;;;;;;;8.52;100.00;98439.53;5137090;28;20057;-58
2023/04/07 02:13:04;;;;;;;6.95;4.25;;;;;;;8.33;100.00;98454.06;5137240;28;20047;-57
2023/04/07 02:15:30;;;;;;;6.03;3.30;;;;;;;8.57;100.00;98440.03;5137398;28;20185;-60
2023/04/07 02:17:59;;;;;;;4.85;3.58;;;;;;;8.60;100.00;98435.78;5137081;28;20062;-58
2023/04/07 02:20:26;;;;;;;6.90;3.38;;;;;;;8.54;100.00;98429.81;5140020;27;20047;-57
2023/04/07 02:22:54;;;;;;;7.82;4.45;;;;;;;8.50;100.00;98420.81;5140659;28;20137;-55
2023/04/07 02:25:25;;;;;;;10.52;3.65;;;;;;;8.57;100.00;98452.91;5140796;28;20404;-60
2023/04/07 02:27:52;;;;;;;4.20;3.40;;;;;;;8.49;100.00;98419.22;5140504;28;20058;-56
2023/04/07 02:30:18;;;;;;;8.98;3.70;;;;;;;8.44;100.00;98450.38;5141052;27;20065;-58
2023/04/07 02:32:44;;;;;;;6.82;3.55;;;;;;;8.21;100.00;98474.94;5140689;28;20134;-55
2023/04/07 02:35:11;;;;;;;5.47;3.17;;;;;;;8.44;100.00;98507.72;5140263;28;20072;-57
2023/04/07 02:37:37;;;;;;;5.30;3.35;;;;;;;8.41;100.00;98488.56;5140669;28;20069;-59
2023/04/07 02:40:04;;;;;;;9.98;3.65;;;;;;;8.42;100.00;98520.97;5140618;28;20094;-59
2023/04/07 02:42:30;;;;;;;6.40;4.03;;;;;;;8.25;100.00;98496.84;5140725;28;20047;-55
2023/04/07 02:44:56;;;;;;;13.75;3.92;;;;;;;8.43;100.00;98508.91;5140539;27;20069;-56
2023/04/07 02:47:22;;;;;;;6.95;3.60;;;;;;;8.09;100.00;98515.31;5140551;27;20043;-56
2023/04/07 02:49:48;;;;;;;10.95;4.00;;;;;;;8.47;100.00;98547.19;5140104;28;20061;-59
2023/04/07 02:52:14;;;;;;;6.85;3.08;;;;;;;8.39;100.00;98526.38;5140579;27;20091;-61
2023/04/07 02:54:40;;;;;;;6.32;3.45;;;;;;;8.36;100.00;98543.44;5140117;28;20397;-57
2023/04/07 02:57:07;;;;;;;5.85;3.55;;;;;;;8.35;100.00;98522.75;5140452;28;20083;-56
2023/04/07 02:59:33;;;;;;;5.93;3.25;;;;;;;8.32;100.00;98513.34;5139972;28;20057;-60
2023/04/07 03:01:58;;;;;;;10.60;3.83;;;;;;;8.11;100.00;98551.22;5140349;28;20078;-59
2023/04/07 03:04:25;;;;;;;6.35;3.65;;;;;;;8.04;100.00;98551.88;5139838;28;20047;-55
2023/04/07 03:06:51;;;;;;;5.32;3.28;;;;;;;8.18;100.00;98633.25;5140047;28;20047;-59
2023/04/07 03:09:17;;;;;;;8.85;3.20;;;;;;;7.98;100.00;98586.09;5140140;28;20053;-61
2023/04/07 03:11:42;;;;;;;8.05;4.40;;;;;;;8.05;100.00;98629.91;5139938;28;20047;-60
2023/04/07 03:14:09;;;;;;;4.80;3.67;;;;;;;7.99;100.00;98670.34;5140084;28;20377;-57
2023/04/07 03:16:35;;;;;;;6.80;3.72;;;;;;;8.12;100.00;98662.78;5139713;27;20054;-59
2023/04/07 03:19:01;;;;;;;6.05;3.60;;;;;;;8.19;100.00;98654.72;5140150;28;20047;-57
2023/04/07 03:21:27;;;;;;;7.90;4.05;;;;;;;7.68;100.00;98633.06;5139874;28;20492;-56
2023/04/07 03:23:53;;;;;;;5.93;4.07;;;;;;;7.59;100.00;98727.16;5139975;28;20050;-56
2023/04/07 03:26:20;;;;;;;5.30;3.38;;;;;;;7.69;100.00;98726.63;5139638;28;20336;-56
2023/04/07 03:28:46;;;;;;;7.00;3.95;;;;;;;7.92;100.00;98745.81;5140005;28;20051;-54
2023/04/07 03:33:58;;;;;;;18.05;4.13;;;;;;;7.75;100.00;98777.81;5139552;28;20062;-54
2023/04/07 03:36:26;;;;;;;6.90;3.67;;;;;;;7.72;100.00;98799.56;5139706;27;20130;-61
2023/04/07 03:38:52;;;;;;;9.90;3.75;;;;;;;7.65;100.00;98788.50;5139487;28;20115;-55
2023/04/07 03:41:18;;;;;;;10.75;3.47;;;;;;;7.72;100.00;98794.91;5139772;28;20107;-61
2023/04/07 03:43:44;;;;;;;17.40;5.00;;;;;;;7.58;100.00;98824.59;5139538;28;20055;-62
2023/04/07 03:46:10;;;;;;;10.50;4.82;;;;;;;7.53;100.00;98833.03;5139602;28;20384;-60
2023/04/07 03:48:37;;;;;;;8.88;3.85;;;;;;;7.48;100.00;98872.28;5139284;28;20189;-61
2023/04/07 03:51:03;;;;;;;6.18;3.53;;;;;;;7.60;100.00;98882.34;5139666;28;20138;-61
2023/04/07 03:53:29;;;;;;;10.13;5.38;;;;;;;7.52;100.00;98872.38;5139093;28;20050;-56
2023/04/07 03:55:55;;;;;;;11.55;4.13;;;;;;;7.68;100.00;98910.56;5139314;28;20082;-53
2023/04/07 03:58:21;;;;;;;5.22;3.60;;;;;;;7.68;100.00;98872.38;5139363;27;20054;-57
2023/04/07 04:00:47;;;;;;;6.05;4.35;;;;;;;7.43;100.00;98894.38;5139151;27;20051;-60
2023/04/07 04:03:12;;;;;;;10.02;4.30;;;;;;;7.43;100.00;98940.75;5139088;28;20065;-60
2023/04/07 04:05:39;;;;;;;5.18;3.90;;;;;;;7.68;100.00;98960.47;5138782;28;20134;-59
2023/04/07 04:08:06;;;;;;;7.05;4.13;;;;;;;7.60;100.00;98944.25;5139280;28;20073;-54
2023/04/07 04:10:32;;;;;;;7.10;4.05;;;;;;;7.64;100.00;98918.66;5138873;28;20420;-54
2023/04/07 04:12:59;;;;;;;5.18;3.65;;;;;;;7.88;100.00;98895.06;5138714;27;20043;-56
2023/04/07 04:15:25;;;;;;;6.32;3.92;;;;;;;7.70;100.00;98851.00;5138997;28;20050;-58
2023/04/07 04:17:51;;;;;;;7.47;3.88;;;;;;;7.78;100.00;98847.28;5139137;28;20082;-59
2023/04/07 04:20:17;;;;;;;7.85;4.28;;;;;;;7.82;100.00;98812.66;5138690;28;20047;-58
2023/04/07 04:22:44;;;;;;;5.90;3.88;;;;;;;7.88;100.00;98756.69;5139057;28;20143;-63
2023/04/07 04:25:10;;;;;;;8.90;4.00;;;;;;;7.92;100.00;98775.84;5138539;28;20138;-61
2023/04/07 04:27:35;;;;;;;7.75;4.80;;;;;;;8.04;100.00;98742.97;5139236;28;20096;-57
2023/04/07 04:30:02;;;;;;;17.25;4.75;;;;;;;7.74;100.00;98765.34;5139238;28;20066;-62
2023/04/07 04:32:31;;;;;;;10.32;4.78;;;;;;;8.10;100.00;98738.03;5138792;28;20051;-61
2023/04/07 04:34:57;;;;;;;9.73;4.22;;;;;;;8.13;100.00;98707.25;5138746;27;20051;-62
2023/04/07 04:37:23;;;;;;;12.00;3.83;;;;;;;8.01;100.00;98717.19;5138573;27;20058;-61
2023/04/07 04:39:50;;;;;;;7.60;4.40;;;;;;;8.05;100.00;98728.16;5138630;28;20051;-59
2023/04/07 04:42:16;;;;;;;6.25;4.47;;;;;;;8.11;100.00;98713.09;5137918;27;20429;-57
2023/04/07 04:44:42;;;;;;;5.63;4.35;;;;;;;8.20;100.00;98710.16;5138443;28;20069;-59
2023/04/07 04:47:08;;;;;;;9.18;3.85;;;;;;;7.98;100.00;98719.84;5138362;28;20047;-60
2023/04/07 04:49:34;;;;;;;10.07;4.47;;;;;;;7.97;100.00;98724.50;5138668;27;20108;-60
2023/04/07 04:52:00;;;;;;;9.90;4.28;;;;;;;8.15;100.00;98683.91;5138047;27;20101;-58
2023/04/07 04:54:25;;;;;;;8.48;3.72;;;;;;;8.52;100.00;98633.50;5138193;28;20058;-56
2023/04/07 04:56:52;;;;;;;10.10;4.22;;;;;;;8.40;100.00;98610.69;5137942;28;20518;-55
2023/04/07 04:59:18;;;;;;;10.07;4.47;;;;;;;8.64;100.00;98622.41;5137871;28;20460;-55
2023/04/07 05:01:44;;;;;;;8.27;4.43;;;;;;;8.62;100.00;98542.72;5137871;27;20053;-56
2023/04/07 05:04:10;;;;;;;19.92;4.65;;;;;;;8.90;100.00;98491.22;5137835;28;20082;-54
2023/04/07 05:06:36;;;;;;;13.82;4.18;;;;;;;9.07;100.00;98454.34;5138094;28;20043;-57
2023/04/07 05:09:02;;;;;;;14.05;3.97;;;;;;;9.24;100.00;98419.38;5137673;28;20134;-59
2023/04/07 05:11:27;;;;;;;10.00;3.72;;;;;;;9.19;100.00;98413.06;5138110;28;20047;-60
2023/04/07 05:13:54;;;;;;;11.77;4.03;;;;;;;9.36;100.00;98408.16;5137571;28;20100;-60
2023/04/07 05:16:20;;;;;;;7.80;4.18;;;;;;;9.00;100.00;98406.97;5138081;27;20058;-59
2023/04/07 05:18:46;;;;;;;9.35;3.90;;;;;;;9.18;100.00;98407.97;5137878;27;20046;-61
2023/04/07 05:21:12;;;;;;;21.98;4.90;;;;;;;8.92;100.00;98403.38;5138047;28;20426;-61
2023/04/07 05:23:38;;;;;;;11.55;4.80;;;;;;;8.92;100.00;98427.97;5137712;28;20076;-57
2023/04/07 05:26:04;;;;;;;7.90;4.30;;;;;;;8.89;100.00;98443.16;5137644;28;20317;-58
2023/04/07 05:28:30;;;;;;;17.05;4.60;;;;;;;8.89;100.00;98440.44;5137677;27;20146;-59
2023/04/07 05:30:57;;;;;;;10.70;4.28;;;;;;;8.86;100.00;98433.00;5137597;28;20055;-60
2023/04/07 05:33:22;;;;;;;9.52;3.47;;;;;;;9.45;100.00;98433.28;5137472;28;20138;-61
2023/04/07 05:35:48;;;;;;;14.18;4.85;;;;;;;9.02;100.00;98394.50;5137228;28;20046;-59
2023/04/07 05:38:15;;;;;;;9.88;4.45;;;;;;;9.22;100.00;98399.81;5137172;27;20368;-58
2023/04/07 05:40:41;;;;;;;9.18;4.53;;;;;;;9.32;100.00;98399.13;5137210;28;20058;-61
2023/04/07 05:43:07;;;;;;;10.45;4.45;;;;;;;9.65;100.00;98379.13;5137667;27;20332;-60
2023/04/07 05:45:33;;;;;;;10.98;4.32;;;;;;;9.44;100.00;98385.19;5137010;28;20137;-59
2023/04/07 05:48:00;;;;;;;8.75;4.40;;;;;;;9.29;100.00;98389.72;5135011;28;20047;-57
2023/04/07 05:50:26;;;;;;;9.82;5.90;;;;;;;9.15;100.00;98393.09;5137126;28;20191;-59
2023/04/07 05:52:52;;;;;;;16.08;4.80;;;;;;;9.02;100.00;98410.13;5135786;28;20050;-57
2023/04/07 05:55:18;;;;;;;10.05;4.53;;;;;;;9.27;100.00;98416.69;5135520;28;20086;-57
2023/04/07 05:57:43;;;;;;;11.32;5.10;;;;;;;9.14;100.00;98429.81;5137163;28;20138;-56
2023/04/07 06:00:11;;;;;;;10.50;4.75;;;;;;;9.00;100.00;98426.09;5137068;27;20051;-54
2023/04/07 06:02:38;;;;;;;12.05;5.13;;;;;;;9.16;100.00;98435.72;5137059;27;20146;-58
2023/04/07 06:05:05;;;;;;;12.60;5.80;;;;;;;8.95;100.00;98444.41;5136510;28;20051;-55
2023/04/07 06:07:31;;;;;;;11.00;5.28;;;;;;;9.28;100.00;98447.53;5136780;28;20519;-58
2023/04/07 06:09:57;;;;;;;7.60;4.88;;;;;;;9.25;100.00;98437.34;5137042;28;20092;-58
2023/04/07 06:12:23;;;;;;;11.88;5.78;;;;;;;9.29;100.00;98422.53;5136487;27;20489;-54
2023/04/07 06:14:52;;;;;;;16.67;5.18;;;;;;;9.10;100.00;98445.41;5137172;28;20091;-56
2023/04/07 06:17:18;;;;;;;11.77;5.15;;;;;;;9.21;100.00;98420.91;5136541;28;20047;-61
2023/04/07 06:19:44;;;;;;;12.63;5.38;;;;;;;9.32;100.00;98438.22;5136972;28;20047;-59
2023/04/07 06:22:11;;;;;;;11.15;5.63;;;;;;;9.35;100.00;98442.94;5136714;28;20134;-58
2023/04/07 06:24:37;;;;;;;14.27;5.72;;;;;;;9.23;100.00;98445.94;5136734;28;20496;-58
2023/04/07 06:27:03;;;;;;;8.98;4.55;;;;;;;9.20;100.00;98479.50;5136560;28;20059;-59
2023/04/07 06:29:29;;;;;;;9.70;5.13;;;;;;;9.03;100.00;98483.59;5136661;28;20077;-59
2023/04/07 06:31:55;;;;;;;10.38;5.43;;;;;;;9.05;100.00;98505.09;5136709;28;20294;-57
2023/04/07 06:34:21;;;;;;;15.25;4.65;;;;;;;9.16;100.00;98484.13;5136421;28;20058;-59
2023/04/07 06:36:47;;;;;;;12.25;6.15;;;;;;;9.08;100.00;98499.66;5136748;28;20047;-60
2023/04/07 06:39:13;;;;;;;9.82;5.55;;;;;;;9.31;100.00;98487.84;5136419;28;20141;-63
2023/04/07 06:41:41;;;;;;;9.98;4.60;;;;;;;9.32;100.00;98501.13;5136686;28;20051;-60
2023/04/07 06:44:09;;;;;;;18.52;4.72;;;;;;;9.40;100.00;98502.03;5136146;27;20417;-61
2023/04/07 06:46:35;;;;;;;14.25;5.25;;;;;;;9.75;100.00;98459.75;5136562;28;20043;-61
2023/04/07 06:49:02;;;;;;;7.82;4.78;;;;;;;9.85;100.00;98420.75;5136049;28;20384;-62
2023/04/07 06:51:28;;;;;;;12.85;5.15;;;;;;;9.51;100.00;98422.78;5136130;28;20420;-60
2023/04/07 06:53:54;;;;;;;18.67;5.40;;;;;;;9.56;100.00;98458.81;5136037;27;20051;-61
2023/04/07 06:56:22;;;;;;;13.25;5.45;;;;;;;9.52;100.00;98506.44;5136231;28;20362;-62
2023/04/07 06:58:49;;;;;;;12.43;4.90;;;;;;;9.13;100.00;98594.25;5136459;28;20047;-63
2023/04/07 07:01:15;;;;;;;10.95;5.15;;;;;;;9.58;100.00;98598.00;5136237;28;20047;-59
2023/04/07 07:03:41;;;;;;;9.85;5.40;;;;;;;9.72;100.00;98587.22;5136419;28;20047;-60
2023/04/07 07:06:07;;;;;;;16.25;5.10;;;;;;;9.81;100.00;98625.25;5138053;27;20112;-62
2023/04/07 07:08:33;;;;;;;11.98;5.45;;;;;;;9.82;100.00;98550.94;5139657;27;20051;-69
2023/04/07 07:10:59;;;;;;;16.15;7.05;;;;;;;9.84;100.00;98553.34;5139467;27;20143;-65
2023/04/07 07:13:27;;;;;;;10.82;5.60;;;;;;;10.00;100.00;98559.38;5139836;28;20046;-65
2023/04/07 07:15:53;;;;;;;9.45;6.20;;;;;;;10.15;100.00;98541.13;5139220;28;20054;-69
2023/04/07 07:18:19;;;;;;;14.15;6.70;;;;;;;10.04;100.00;98497.19;5140022;27;20096;-69
2023/04/07 07:20:45;;;;;;;10.13;5.45;;;;;;;10.20;100.00;98507.91;5139135;28;20054;-63
2023/04/07 07:23:11;;;;;;;11.70;5.82;;;;;;;9.87;100.00;98506.81;5139481;28;20382;-67
2023/04/07 07:25:37;;;;;;;12.23;6.07;;;;;;;10.26;100.00;98552.19;5139424;28;20059;-66
2023/04/07 07:28:03;;;;;;;10.30;5.78;;;;;;;10.41;100.00;98564.88;5139297;28;20130;-68
2023/04/07 07:30:30;;;;;;;19.63;6.95;;;;;;;10.28;100.00;98534.22;5139567;28;20525;-69
2023/04/07 07:32:56;;;;;;;8.75;5.75;;;;;;;10.30;100.00;98569.47;5139076;27;20324;-63
2023/04/07 07:35:24;;;;;;;13.00;5.72;;;;;;;10.42;100.00;98560.19;5139476;28;20142;-62
2023/04/07 07:37:50;;;;;;;12.32;6.13;;;;;;;10.35;100.00;98511.59;5139334;28;20055;-71
2023/04/07 07:40:16;;;;;;;12.27;6.00;;;;;;;10.23;100.00;98561.94;5139629;28;20079;-70
2023/04/07 07:42:42;;;;;;;11.25;5.53;;;;;;;10.29;100.00;98587.06;5139096;28;20061;-71
2023/04/07 07:45:09;;;;;;;8.70;4.70;;;;;;;10.12;100.00;98588.44;5139634;28;20188;-67
2023/04/07 07:47:36;;;;;;;12.68;5.72;;;;;;;10.27;100.00;98628.53;5139757;27;20187;-67
2023/04/07 07:50:02;;;;;;;16.15;5.95;;;;;;;10.62;100.00;98605.38;5142556;28;20073;-69
2023/04/07 07:52:28;;;;;;;14.15;5.38;;;;;;;10.32;100.00;98600.78;5141152;28;20089;-64
2023/04/07 07:54:54;;;;;;;17.98;6.15;;;;;;;10.26;100.00;98632.47;5138743;28;20130;-67
2023/04/07 07:57:20;;;;;;;19.35;5.80;;;;;;;10.30;100.00;98633.28;5139225;28;20051;-72
2023/04/07 07:59:46;;;;;;;12.05;5.20;;;;;;;10.34;100.00;98633.31;5138949;28;20134;-72
2023/04/07 08:02:12;;;;;;;18.30;6.05;;;;;;;10.57;100.00;98622.19;5139005;27;20078;-70
2023/04/07 08:04:39;;;;;;;12.43;5.03;;;;;;;10.43;100.00;98569.97;5138552;28;20057;-64
2023/04/07 08:07:05;;;;;;;17.95;5.38;;;;;;;10.88;100.00;98592.66;5138998;28;20050;-62
2023/04/07 08:09:31;;;;;;;13.57;6.88;;;;;;;10.92;100.00;98555.06;5138592;28;20090;-68
2023/04/07 08:11:57;;;;;;;14.05;6.78;;;;;;;10.87;100.00;98533.50;5138969;28;20047;-72
2023/04/07 08:14:23;;;;;;;14.40;5.57;;;;;;;10.81;100.00;98565.97;5138356;28;20051;-70
2023/04/07 08:16:49;;;;;;;14.98;5.55;;;;;;;10.72;100.00;98532.59;5138038;27;20043;-63
2023/04/07 08:19:15;;;;;;;14.48;6.60;;;;;;;10.69;100.00;98523.19;5138780;27;20107;-64
2023/04/07 08:21:41;;;;;;;19.10;5.72;;;;;;;10.81;100.00;98555.78;5138522;27;20142;-67
2023/04/07 08:24:08;;;;;;;13.27;6.03;;;;;;;11.30;100.00;98561.97;5138492;28;20093;-63
2023/04/07 08:26:34;;;;;;;13.88;5.90;;;;;;;11.84;100.00;98496.28;5138445;28;20141;-66
2023/04/07 08:29:00;;;;;;;15.25;5.75;;;;;;;11.77;100.00;98445.66;5138354;28;20061;-63
2023/04/07 08:31:26;;;;;;;11.52;5.82;;;;;;;11.85;100.00;98442.94;5138301;28;20074;-64
2023/04/07 08:33:56;;;;;;;19.30;6.75;;;;;;;12.29;100.00;98445.31;5138498;28;20055;-71
2023/04/07 08:36:22;;;;;;;14.63;5.88;;;;;;;12.09;100.00;98444.91;5138218;28;20061;-69
2023/04/07 08:38:49;;;;;;;11.15;5.97;;;;;;;12.08;100.00;98448.84;5138484;28;20047;-71
2023/04/07 08:41:20;;;;;;;9.32;5.63;;;;;;;11.98;100.00;98446.88;5137995;28;20047;-66
2023/04/07 08:43:48;;;;;;;8.63;5.68;;;;;;;11.92;100.00;98449.22;5138468;28;20047;-65
2023/04/07 08:46:15;;;;;;;14.20;5.78;;;;;;;11.72;100.00;98459.75;5138270;27;20047;-69
2023/04/07 08:48:43;;;;;;;15.60;6.75;;;;;;;11.75;100.00;98448.00;5137972;28;20374;-66
2023/04/07 08:51:13;;;;;;;22.08;7.15;;;;;;;11.72;100.00;98458.97;5138562;28;20058;-64
2023/04/07 08:53:42;;;;;;;17.05;6.07;;;;;;;11.84;100.00;98450.41;5138114;28;20057;-73
2023/04/07 08:56:11;;;;;;;15.02;6.25;;;;;;;11.90;100.00;98467.28;5138539;27;20263;-67
2023/04/07 08:58:37;;;;;;;13.40;6.85;;;;;;;11.66;100.00;98474.25;5138235;27;20057;-71
2023/04/07 09:01:04;;;;;;;11.75;6.13;;;;;;;12.24;100.00;98467.69;5139243;28;20138;-66
2023/04/07 09:03:31;;;;;;;11.20;5.38;;;;;;;12.17;100.00;98457.50;5138909;28;20331;-73
2023/04/07 09:05:58;;;;;;;13.82;6.53;;;;;;;12.49;100.00;98448.44;5139049;28;20350;-65
2023/04/07 09:08:24;;;;;;;11.57;5.78;;;;;;;12.15;100.00;98434.31;5138301;28;20058;-73
2023/04/07 09:10:50;;;;;;;13.70;6.18;;;;;;;12.65;100.00;98442.50;5138329;28;20378;-73
2023/04/07 09:13:17;;;;;;;14.02;5.68;;;;;;;12.22;100.00;98446.09;5138106;28;20494;-67
2023/04/07 09:15:43;;;;;;;19.67;5.78;;;;;;;12.43;100.00;98445.31;5137886;28;20138;-70
2023/04/07 09:18:09;;;;;;;17.23;6.72;;;;;;;12.70;100.00;98448.41;5138242;28;20142;-65
2023/04/07 09:20:57;;;;;;;16.20;6.10;;;;;;;12.13;100.00;98439.41;5138175;28;20047;-71
2023/04/07 09:23:28;;;;;;;15.68;5.60;;;;;;;12.29;100.00;98450.81;5138304;28;20301;-65
2023/04/07 09:25:54;;;;;;;14.05;5.63;;;;;;;12.19;100.00;98440.59;5137377;28;20068;-64
2023/04/07 09:28:21;;;;;;;14.98;6.32;;;;;;;12.69;100.00;98435.84;5137939;27;20047;-71
2023/04/07 09:30:52;;;;;;;10.75;5.38;;;;;;;12.60;100.00;98446.47;5137190;27;20046;-68
2023/04/07 09:33:26;;;;;;;16.33;6.63;;;;;;;12.59;100.00;98447.63;5137417;28;20042;-67
2023/04/07 09:35:52;;;;;;;15.18;6.13;;;;;;;12.97;100.00;98445.19;5137307;27;20118;-65
2023/04/07 09:38:18;;;;;;;11.18;5.88;;;;;;;12.51;100.00;98450.78;5137088;28;20332;-64
2023/04/07 09:40:44;;;;;;;13.65;5.90;;;;;;;12.44;100.00;98455.13;5137127;28;20057;-67
2023/04/07 09:43:15;;;;;;;12.20;6.10;;;;;;;12.52;100.00;98447.63;5137091;28;20055;-71
2023/04/07 09:45:42;;;;;;;16.70;6.07;;;;;;;12.68;100.00;98445.25;5137227;27;20198;-73
2023/04/07 09:48:18;;;;;;;12.90;6.30;;;;;;;13.04;100.00;98438.88;5137078;28;20413;-71
2023/04/07 09:50:48;;;;;;;11.63;6.00;;;;;;;12.91;100.00;98444.81;5137531;27;20047;-70
2023/04/07 09:53:14;;;;;;;15.38;6.32;;;;;;;12.93;100.00;98449.91;5137125;28;20112;-70
2023/04/07 09:55:41;;;;;;;19.23;6.32;;;;;;;13.25;100.00;98458.06;5137351;28;20059;-64
2023/04/07 09:58:07;;;;;;;12.80;5.35;;;;;;;13.72;100.00;98461.38;5136927;28;20062;-67
2023/04/07 10:00:35;;;;;;;10.18;5.60;;;;;;;13.49;100.00;98475.66;5137288;28;20080;-67
2023/04/07 10:03:03;;;;;;;14.70;6.10;;;;;;;13.61;100.00;98466.16;5136992;27;20047;-67
2023/04/07 10:05:29;;;;;;;11.75;6.13;;;;;;;13.72;100.00;98499.94;5136875;28;20150;-67
2023/04/07 10:07:55;;;;;;;10.25;5.68;;;;;;;13.78;100.00;98520.38;5136990;28;20313;-67
2023/04/07 10:10:21;;;;;;;13.45;6.32;;;;;;;14.16;100.00;98511.47;5136892;28;20336;-64
2023/04/07 10:12:49;;;;;;;12.25;5.93;;;;;;;14.32;100.00;98529.06;5137001;28;20142;-68
2023/04/07 10:15:16;;;;;;;11.18;5.20;;;;;;;14.16;100.00;98541.78;5137032;27;20082;-71
2023/04/07 10:17:46;;;;;;;11.77;5.97;;;;;;;14.35;100.00;98541.25;5137172;27;20119;-71
2023/04/07 10:20:14;;;;;;;14.52;6.20;;;;;;;14.03;100.00;98549.78;5137078;28;20051;-57
2023/04/07 10:22:42;;;;;;;13.25;5.50;;;;;;;14.04;100.00;98534.78;5136938;28;20397;-66
2023/04/07 10:25:10;;;;;;;21.73;6.78;;;;;;;14.41;100.00;98528.63;5136242;27;20076;-64
2023/04/07 10:27:48;;;;;;;17.00;6.35;;;;;;;13.92;100.00;98513.22;5136603;28;20047;-66
2023/04/07 10:30:18;;;;;;;24.17;5.32;;;;;;;14.16;100.00;98509.53;5136819;28;20047;-63
2023/04/07 10:32:48;;;;;;;11.43;6.55;;;;;;;13.79;100.00;98501.88;5136398;28;20103;-61
2023/04/07 10:35:16;;;;;;;17.85;6.28;;;;;;;14.22;100.00;98485.81;5136746;28;20051;-63
2023/04/07 10:38:12;;;;;;;14.52;7.20;;;;;;;14.12;100.00;98498.50;5136599;28;20047;-65
2023/04/07 10:40:40;;;;;;;14.40;6.30;;;;;;;13.99;100.00;98508.44;5138535;27;20043;-63
2023/04/07 10:43:10;;;;;;;15.50;6.63;;;;;;;13.98;100.00;98489.56;5140009;28;20054;-66
2023/04/07 10:45:58;;;;;;;11.98;5.80;;;;;;;14.19;100.00;98474.81;5139905;28;20043;-66
2023/04/07 10:48:24;;;;;;;19.10;6.63;;;;;;;13.99;100.00;98485.59;5140244;27;20046;-66
2023/04/07 10:51:16;;;;;;;11.25;6.40;;;;;;;14.72;100.00;98503.94;5140261;28;20055;-63
2023/04/07 10:54:22;;;;;;;15.40;7.25;;;;;;;14.32;100.00;98522.78;5140148;28;20051;-66
2023/04/07 10:57:11;;;;;;;24.58;7.05;;;;;;;14.82;100.00;98580.31;5139645;28;20377;-67
2023/04/07 10:59:39;;;;;;;11.80;6.18;;;;;;;14.74;100.00;98590.66;5139891;28;20141;-68
2023/04/07 11:02:32;;;;;;;14.45;5.95;;;;;;;15.06;100.00;98631.78;5140208;28;20404;-63
2023/04/07 11:04:58;;;;;;;21.50;6.35;;;;;;;14.73;100.00;98580.81;5139773;28;20321;-64
2023/04/07 11:07:43;;;;;;;10.10;6.57;;;;;;;15.06;100.00;98606.94;5140395;28;20412;-70
2023/04/07 11:10:11;;;;;;;12.10;6.32;;;;;;;14.75;100.00;98558.31;5141209;28;20108;-64
2023/04/07 11:12:37;;;;;;;17.13;6.15;;;;;;;14.49;100.00;98551.41;5139931;27;20373;-67
2023/04/07 11:15:16;;;;;;;17.88;6.60;;;;;;;14.43;100.00;98539.22;5139292;28;20043;-64
2023/04/07 11:17:42;;;;;;;15.27;5.95;;;;;;;14.79;100.00;98509.41;5139693;28;20087;-66
2023/04/07 11:20:09;;;;;;;12.40;6.20;;;;;;;14.46;100.00;98554.97;5139779;28;20058;-71
2023/04/07 11:22:36;;;;;;;11.18;5.50;;;;;;;14.20;100.00;98524.06;5139347;28;20062;-63
2023/04/07 11:25:03;;;;;;;9.57;5.65;;;;;;;14.01;100.00;98503.31;5139644;27;20047;-62
2023/04/07 11:27:29;;;;;;;17.08;5.97;;;;;;;14.63;100.00;98500.88;5139240;28;20134;-67
2023/04/07 11:29:55;;;;;;;11.18;5.10;;;;;;;14.48;100.00;98506.50;5139596;27;20200;-64
2023/04/07 11:32:24;;;;;;;12.88;5.28;;;;;;;14.45;100.00;98495.50;5139243;27;20141;-63